Atlanta, Mississippi
Current Conditions -  °F | °C
As of 11:15 PM on Sunday 19 Oct 2014 (Local Time) from KM40 Reporting Station
Haze Haze  
Wind Chill: 46°   Ceiling: Unl
Heat Index: 46°   Visibility: 1.5mi
Dew Point: 32°   Wind: 0mph
Humidity: 57%   Direction: NA
Pressure: 30.11"   Gusts: NA
Location:  33.7962°N, 89.0553°W
Report Text: KM40 200415Z AUTO 00000KT 1 1/2SM HZ CLR 08/00 A3011 RMK AO2
Loading
Personal Weather Stations






























Interactive Weather Map New forecast layout! Learn more

10-Day Weather Forecast

Advertisements
Track Severe Weather on mobile